sensor_id;sensor_type;location;lat;lon;timestamp;P1;durP1;ratioP1;P2;durP2;ratioP2
39050;SDS011;24805;55.852;37.644;2022-12-22T00:05:20;3.50;;;1.10;;
39050;SDS011;24805;55.852;37.644;2022-12-22T00:10:42;1.67;;;1.13;;
39050;SDS011;24805;55.852;37.644;2022-12-22T00:16:03;2.08;;;1.17;;
39050;SDS011;24805;55.852;37.644;2022-12-22T00:21:23;2.28;;;0.90;;
39050;SDS011;24805;55.852;37.644;2022-12-22T00:26:47;2.00;;;1.00;;
39050;SDS011;24805;55.852;37.644;2022-12-22T00:32:11;1.43;;;0.87;;
39050;SDS011;24805;55.852;37.644;2022-12-22T00:37:34;3.20;;;1.02;;
39050;SDS011;24805;55.852;37.644;2022-12-22T00:42:56;1.60;;;0.88;;
39050;SDS011;24805;55.852;37.644;2022-12-22T00:48:23;2.55;;;1.00;;
39050;SDS011;24805;55.852;37.644;2022-12-22T00:53:46;2.75;;;1.00;;
39050;SDS011;24805;55.852;37.644;2022-12-22T00:59:07;2.65;;;1.10;;
39050;SDS011;24805;55.852;37.644;2022-12-22T01:04:28;2.25;;;1.23;;
39050;SDS011;24805;55.852;37.644;2022-12-22T01:09:50;1.65;;;0.70;;
39050;SDS011;24805;55.852;37.644;2022-12-22T01:15:12;3.17;;;0.90;;
39050;SDS011;24805;55.852;37.644;2022-12-22T01:20:38;3.20;;;1.00;;
39050;SDS011;24805;55.852;37.644;2022-12-22T01:25:58;3.97;;;1.10;;
39050;SDS011;24805;55.852;37.644;2022-12-22T01:31:27;1.83;;;0.90;;
39050;SDS011;24805;55.852;37.644;2022-12-22T01:36:48;3.03;;;1.27;;
39050;SDS011;24805;55.852;37.644;2022-12-22T01:42:09;1.98;;;1.00;;
39050;SDS011;24805;55.852;37.644;2022-12-22T01:47:32;2.20;;;1.40;;
39050;SDS011;24805;55.852;37.644;2022-12-22T01:52:53;4.13;;;1.75;;
39050;SDS011;24805;55.852;37.644;2022-12-22T01:58:22;1.77;;;1.15;;
39050;SDS011;24805;55.852;37.644;2022-12-22T02:03:46;1.95;;;1.67;;
39050;SDS011;24805;55.852;37.644;2022-12-22T02:14:46;3.35;;;1.08;;
39050;SDS011;24805;55.852;37.644;2022-12-22T02:31:36;2.80;;;1.05;;
39050;SDS011;24805;55.852;37.644;2022-12-22T02:37:04;1.42;;;0.90;;
39050;SDS011;24805;55.852;37.644;2022-12-22T02:48:44;2.20;;;1.20;;
39050;SDS011;24805;55.852;37.644;2022-12-22T02:54:30;1.35;;;0.98;;
39050;SDS011;24805;55.852;37.644;2022-12-22T02:59:52;2.08;;;1.02;;
39050;SDS011;24805;55.852;37.644;2022-12-22T03:05:13;1.70;;;0.90;;
39050;SDS011;24805;55.852;37.644;2022-12-22T03:10:33;4.60;;;1.10;;
39050;SDS011;24805;55.852;37.644;2022-12-22T03:15:54;2.10;;;1.40;;
39050;SDS011;24805;55.852;37.644;2022-12-22T03:21:14;3.85;;;1.38;;
39050;SDS011;24805;55.852;37.644;2022-12-22T03:26:35;2.77;;;1.40;;
39050;SDS011;24805;55.852;37.644;2022-12-22T03:31:39;1.77;;;1.20;;
39050;SDS011;24805;55.852;37.644;2022-12-22T03:36:42;1.70;;;1.20;;
39050;SDS011;24805;55.852;37.644;2022-12-22T03:41:44;2.42;;;1.58;;
39050;SDS011;24805;55.852;37.644;2022-12-22T03:47:05;2.42;;;1.33;;
39050;SDS011;24805;55.852;37.644;2022-12-22T03:52:07;2.08;;;1.42;;
39050;SDS011;24805;55.852;37.644;2022-12-22T03:57:09;2.13;;;1.58;;
39050;SDS011;24805;55.852;37.644;2022-12-22T04:02:11;5.38;;;2.72;;
39050;SDS011;24805;55.852;37.644;2022-12-22T04:07:13;1.88;;;1.40;;
39050;SDS011;24805;55.852;37.644;2022-12-22T04:12:15;1.38;;;0.88;;
39050;SDS011;24805;55.852;37.644;2022-12-22T04:17:36;2.20;;;1.58;;
39050;SDS011;24805;55.852;37.644;2022-12-22T04:22:38;4.88;;;2.05;;
39050;SDS011;24805;55.852;37.644;2022-12-22T04:27:40;3.00;;;1.80;;
39050;SDS011;24805;55.852;37.644;2022-12-22T04:32:42;3.25;;;1.73;;
39050;SDS011;24805;55.852;37.644;2022-12-22T04:37:44;4.15;;;1.65;;
39050;SDS011;24805;55.852;37.644;2022-12-22T04:42:46;1.98;;;1.40;;
39050;SDS011;24805;55.852;37.644;2022-12-22T04:47:48;3.15;;;2.15;;
39050;SDS011;24805;55.852;37.644;2022-12-22T04:52:50;3.03;;;1.75;;
39050;SDS011;24805;55.852;37.644;2022-12-22T04:57:52;3.30;;;2.53;;
39050;SDS011;24805;55.852;37.644;2022-12-22T05:02:54;3.25;;;2.40;;
39050;SDS011;24805;55.852;37.644;2022-12-22T05:07:56;3.55;;;2.33;;
39050;SDS011;24805;55.852;37.644;2022-12-22T05:12:58;3.78;;;2.05;;
39050;SDS011;24805;55.852;37.644;2022-12-22T05:18:01;3.75;;;2.30;;
39050;SDS011;24805;55.852;37.644;2022-12-22T05:23:04;4.68;;;2.35;;
39050;SDS011;24805;55.852;37.644;2022-12-22T05:28:06;3.13;;;2.40;;
39050;SDS011;24805;55.852;37.644;2022-12-22T05:33:08;5.28;;;2.22;;
39050;SDS011;24805;55.852;37.644;2022-12-22T05:38:10;5.47;;;3.05;;
39050;SDS011;24805;55.852;37.644;2022-12-22T05:43:12;4.25;;;2.95;;
39050;SDS011;24805;55.852;37.644;2022-12-22T05:48:14;4.75;;;3.42;;
39050;SDS011;24805;55.852;37.644;2022-12-22T05:53:19;6.72;;;4.03;;
39050;SDS011;24805;55.852;37.644;2022-12-22T05:58:21;6.15;;;3.55;;
39050;SDS011;24805;55.852;37.644;2022-12-22T06:03:23;5.60;;;3.63;;
39050;SDS011;24805;55.852;37.644;2022-12-22T06:08:27;4.25;;;2.97;;
39050;SDS011;24805;55.852;37.644;2022-12-22T06:13:29;5.70;;;3.83;;
39050;SDS011;24805;55.852;37.644;2022-12-22T06:18:31;5.55;;;3.88;;
39050;SDS011;24805;55.852;37.644;2022-12-22T06:23:33;7.53;;;4.40;;
39050;SDS011;24805;55.852;37.644;2022-12-22T06:28:35;6.97;;;4.20;;
39050;SDS011;24805;55.852;37.644;2022-12-22T06:33:37;6.63;;;4.15;;
39050;SDS011;24805;55.852;37.644;2022-12-22T06:38:39;7.10;;;4.50;;
39050;SDS011;24805;55.852;37.644;2022-12-22T06:43:41;9.23;;;4.22;;
39050;SDS011;24805;55.852;37.644;2022-12-22T06:48:43;5.72;;;4.13;;
39050;SDS011;24805;55.852;37.644;2022-12-22T06:54:04;7.77;;;4.80;;
39050;SDS011;24805;55.852;37.644;2022-12-22T06:59:06;5.88;;;4.43;;
39050;SDS011;24805;55.852;37.644;2022-12-22T07:04:08;5.53;;;4.43;;
39050;SDS011;24805;55.852;37.644;2022-12-22T07:09:11;8.15;;;5.28;;
39050;SDS011;24805;55.852;37.644;2022-12-22T07:14:13;6.45;;;4.95;;
39050;SDS011;24805;55.852;37.644;2022-12-22T07:19:15;10.13;;;6.70;;
39050;SDS011;24805;55.852;37.644;2022-12-22T07:24:17;6.60;;;4.90;;
39050;SDS011;24805;55.852;37.644;2022-12-22T07:29:24;10.38;;;5.00;;
39050;SDS011;24805;55.852;37.644;2022-12-22T07:34:26;7.47;;;5.32;;
39050;SDS011;24805;55.852;37.644;2022-12-22T07:39:28;5.88;;;4.72;;
39050;SDS011;24805;55.852;37.644;2022-12-22T07:44:30;10.00;;;6.43;;
39050;SDS011;24805;55.852;37.644;2022-12-22T07:49:32;9.40;;;5.35;;
39050;SDS011;24805;55.852;37.644;2022-12-22T07:54:53;9.45;;;5.82;;
39050;SDS011;24805;55.852;37.644;2022-12-22T07:59:55;8.88;;;7.07;;
39050;SDS011;24805;55.852;37.644;2022-12-22T08:04:57;9.23;;;6.65;;
39050;SDS011;24805;55.852;37.644;2022-12-22T08:09:59;9.88;;;6.93;;
39050;SDS011;24805;55.852;37.644;2022-12-22T08:15:03;9.35;;;6.75;;
39050;SDS011;24805;55.852;37.644;2022-12-22T08:20:07;9.03;;;6.53;;
39050;SDS011;24805;55.852;37.644;2022-12-22T08:25:09;9.82;;;6.97;;
39050;SDS011;24805;55.852;37.644;2022-12-22T08:30:13;10.57;;;7.38;;
39050;SDS011;24805;55.852;37.644;2022-12-22T08:35:15;9.43;;;6.60;;
39050;SDS011;24805;55.852;37.644;2022-12-22T08:40:20;9.80;;;7.10;;
39050;SDS011;24805;55.852;37.644;2022-12-22T08:45:24;14.75;;;8.43;;
39050;SDS011;24805;55.852;37.644;2022-12-22T08:50:27;11.70;;;8.32;;
39050;SDS011;24805;55.852;37.644;2022-12-22T08:55:29;11.65;;;8.07;;
39050;SDS011;24805;55.852;37.644;2022-12-22T09:00:31;12.90;;;8.82;;
39050;SDS011;24805;55.852;37.644;2022-12-22T09:05:34;12.55;;;8.55;;
39050;SDS011;24805;55.852;37.644;2022-12-22T09:10:40;14.95;;;8.93;;
39050;SDS011;24805;55.852;37.644;2022-12-22T09:15:44;12.38;;;9.00;;
39050;SDS011;24805;55.852;37.644;2022-12-22T09:20:46;15.15;;;9.48;;
39050;SDS011;24805;55.852;37.644;2022-12-22T09:25:48;13.90;;;8.50;;
39050;SDS011;24805;55.852;37.644;2022-12-22T09:30:51;12.00;;;7.38;;
39050;SDS011;24805;55.852;37.644;2022-12-22T09:35:55;12.27;;;8.43;;
39050;SDS011;24805;55.852;37.644;2022-12-22T09:41:17;16.42;;;10.95;;
39050;SDS011;24805;55.852;37.644;2022-12-22T09:46:35;16.27;;;8.88;;
39050;SDS011;24805;55.852;37.644;2022-12-22T09:51:39;15.30;;;9.50;;
39050;SDS011;24805;55.852;37.644;2022-12-22T09:56:44;15.95;;;10.43;;
39050;SDS011;24805;55.852;37.644;2022-12-22T10:12:35;16.92;;;10.65;;
39050;SDS011;24805;55.852;37.644;2022-12-22T10:17:37;17.00;;;11.45;;
39050;SDS011;24805;55.852;37.644;2022-12-22T10:22:47;18.35;;;11.48;;
39050;SDS011;24805;55.852;37.644;2022-12-22T10:27:52;18.55;;;10.07;;
39050;SDS011;24805;55.852;37.644;2022-12-22T10:38:24;17.70;;;10.18;;
39050;SDS011;24805;55.852;37.644;2022-12-22T10:43:34;15.45;;;9.18;;
39050;SDS011;24805;55.852;37.644;2022-12-22T10:48:39;16.80;;;10.23;;
39050;SDS011;24805;55.852;37.644;2022-12-22T11:04:11;16.75;;;11.07;;
39050;SDS011;24805;55.852;37.644;2022-12-22T11:09:17;18.50;;;11.35;;
39050;SDS011;24805;55.852;37.644;2022-12-22T11:14:49;19.75;;;11.93;;
39050;SDS011;24805;55.852;37.644;2022-12-22T11:25:56;18.48;;;10.73;;
39050;SDS011;24805;55.852;37.644;2022-12-22T11:31:16;20.98;;;11.73;;
39050;SDS011;24805;55.852;37.644;2022-12-22T11:37:03;17.83;;;11.68;;
39050;SDS011;24805;55.852;37.644;2022-12-22T11:52:57;14.07;;;9.32;;
39050;SDS011;24805;55.852;37.644;2022-12-22T12:14:30;14.02;;;8.80;;
39050;SDS011;24805;55.852;37.644;2022-12-22T12:19:45;15.95;;;10.18;;
39050;SDS011;24805;55.852;37.644;2022-12-22T12:25:10;15.38;;;8.60;;
39050;SDS011;24805;55.852;37.644;2022-12-22T12:30:26;15.40;;;9.40;;
39050;SDS011;24805;55.852;37.644;2022-12-22T12:36:00;13.27;;;8.77;;
39050;SDS011;24805;55.852;37.644;2022-12-22T12:51:53;14.35;;;8.27;;
39050;SDS011;24805;55.852;37.644;2022-12-22T13:02:56;14.48;;;9.18;;
39050;SDS011;24805;55.852;37.644;2022-12-22T13:23:36;13.98;;;8.23;;
39050;SDS011;24805;55.852;37.644;2022-12-22T13:39:26;17.05;;;7.93;;
39050;SDS011;24805;55.852;37.644;2022-12-22T13:44:28;12.38;;;8.18;;
39050;SDS011;24805;55.852;37.644;2022-12-22T13:49:33;15.80;;;8.45;;
39050;SDS011;24805;55.852;37.644;2022-12-22T13:54:55;12.98;;;7.63;;
39050;SDS011;24805;55.852;37.644;2022-12-22T13:59:58;11.05;;;7.47;;
39050;SDS011;24805;55.852;37.644;2022-12-22T14:05:10;12.70;;;7.07;;
39050;SDS011;24805;55.852;37.644;2022-12-22T14:10:13;14.35;;;8.13;;
39050;SDS011;24805;55.852;37.644;2022-12-22T14:15:16;11.88;;;7.97;;
39050;SDS011;24805;55.852;37.644;2022-12-22T14:25:28;10.57;;;6.85;;
39050;SDS011;24805;55.852;37.644;2022-12-22T14:30:35;13.50;;;7.35;;
39050;SDS011;24805;55.852;37.644;2022-12-22T14:35:42;11.85;;;7.65;;
39050;SDS011;24805;55.852;37.644;2022-12-22T14:40:44;12.75;;;7.80;;
39050;SDS011;24805;55.852;37.644;2022-12-22T14:46:02;15.48;;;7.43;;
39050;SDS011;24805;55.852;37.644;2022-12-22T14:51:07;12.93;;;7.82;;
39050;SDS011;24805;55.852;37.644;2022-12-22T14:56:10;14.63;;;8.70;;
39050;SDS011;24805;55.852;37.644;2022-12-22T15:01:26;11.20;;;7.22;;
39050;SDS011;24805;55.852;37.644;2022-12-22T15:06:37;17.27;;;9.02;;
39050;SDS011;24805;55.852;37.644;2022-12-22T15:11:48;12.85;;;7.45;;
39050;SDS011;24805;55.852;37.644;2022-12-22T15:16:54;14.15;;;7.25;;
39050;SDS011;24805;55.852;37.644;2022-12-22T15:21:58;10.48;;;7.00;;
39050;SDS011;24805;55.852;37.644;2022-12-22T15:27:00;15.40;;;8.43;;
39050;SDS011;24805;55.852;37.644;2022-12-22T15:32:02;11.15;;;7.93;;
39050;SDS011;24805;55.852;37.644;2022-12-22T15:37:04;15.90;;;8.98;;
39050;SDS011;24805;55.852;37.644;2022-12-22T15:42:06;10.82;;;7.60;;
39050;SDS011;24805;55.852;37.644;2022-12-22T15:47:08;13.15;;;8.65;;
39050;SDS011;24805;55.852;37.644;2022-12-22T15:52:12;12.10;;;7.88;;
39050;SDS011;24805;55.852;37.644;2022-12-22T15:57:15;11.05;;;7.85;;
39050;SDS011;24805;55.852;37.644;2022-12-22T16:02:17;15.55;;;8.70;;
39050;SDS011;24805;55.852;37.644;2022-12-22T16:07:19;14.07;;;8.77;;
39050;SDS011;24805;55.852;37.644;2022-12-22T16:12:21;18.50;;;9.20;;
39050;SDS011;24805;55.852;37.644;2022-12-22T16:17:25;13.60;;;7.72;;
39050;SDS011;24805;55.852;37.644;2022-12-22T16:22:30;15.95;;;9.73;;
39050;SDS011;24805;55.852;37.644;2022-12-22T16:27:34;15.55;;;8.50;;
39050;SDS011;24805;55.852;37.644;2022-12-22T16:32:36;14.95;;;10.15;;
39050;SDS011;24805;55.852;37.644;2022-12-22T16:37:40;12.57;;;8.48;;
39050;SDS011;24805;55.852;37.644;2022-12-22T16:42:46;15.68;;;9.90;;
39050;SDS011;24805;55.852;37.644;2022-12-22T16:48:13;17.60;;;8.15;;
39050;SDS011;24805;55.852;37.644;2022-12-22T16:53:19;18.00;;;11.80;;
39050;SDS011;24805;55.852;37.644;2022-12-22T16:58:21;17.55;;;11.50;;
39050;SDS011;24805;55.852;37.644;2022-12-22T17:03:23;15.65;;;8.57;;
39050;SDS011;24805;55.852;37.644;2022-12-22T17:08:32;13.02;;;9.25;;
39050;SDS011;24805;55.852;37.644;2022-12-22T17:13:37;14.63;;;9.32;;
39050;SDS011;24805;55.852;37.644;2022-12-22T17:18:39;15.00;;;9.45;;
39050;SDS011;24805;55.852;37.644;2022-12-22T17:23:42;16.88;;;9.15;;
39050;SDS011;24805;55.852;37.644;2022-12-22T17:28:48;15.27;;;8.75;;
39050;SDS011;24805;55.852;37.644;2022-12-22T17:33:50;13.30;;;8.45;;
39050;SDS011;24805;55.852;37.644;2022-12-22T17:38:52;15.57;;;9.00;;
39050;SDS011;24805;55.852;37.644;2022-12-22T17:43:55;14.55;;;9.00;;
39050;SDS011;24805;55.852;37.644;2022-12-22T17:48:57;13.00;;;8.15;;
39050;SDS011;24805;55.852;37.644;2022-12-22T17:53:59;13.25;;;8.55;;
39050;SDS011;24805;55.852;37.644;2022-12-22T17:59:01;12.10;;;8.98;;
39050;SDS011;24805;55.852;37.644;2022-12-22T18:04:03;13.88;;;8.15;;
39050;SDS011;24805;55.852;37.644;2022-12-22T18:09:06;16.15;;;8.95;;
39050;SDS011;24805;55.852;37.644;2022-12-22T18:14:11;19.50;;;9.18;;
39050;SDS011;24805;55.852;37.644;2022-12-22T18:19:14;13.48;;;9.32;;
39050;SDS011;24805;55.852;37.644;2022-12-22T18:24:16;14.48;;;10.13;;
39050;SDS011;24805;55.852;37.644;2022-12-22T18:29:20;16.80;;;10.55;;
39050;SDS011;24805;55.852;37.644;2022-12-22T18:34:22;16.63;;;9.48;;
39050;SDS011;24805;55.852;37.644;2022-12-22T18:39:23;15.95;;;10.27;;
39050;SDS011;24805;55.852;37.644;2022-12-22T18:44:26;18.65;;;10.80;;
39050;SDS011;24805;55.852;37.644;2022-12-22T18:49:28;17.45;;;10.00;;
39050;SDS011;24805;55.852;37.644;2022-12-22T18:54:30;15.85;;;9.90;;
39050;SDS011;24805;55.852;37.644;2022-12-22T18:59:33;17.58;;;10.60;;
39050;SDS011;24805;55.852;37.644;2022-12-22T19:04:35;13.45;;;8.93;;
39050;SDS011;24805;55.852;37.644;2022-12-22T19:09:38;17.90;;;11.27;;
39050;SDS011;24805;55.852;37.644;2022-12-22T19:14:40;14.82;;;9.43;;
39050;SDS011;24805;55.852;37.644;2022-12-22T19:19:45;18.25;;;10.25;;
39050;SDS011;24805;55.852;37.644;2022-12-22T19:24:47;15.35;;;8.68;;
39050;SDS011;24805;55.852;37.644;2022-12-22T19:29:52;20.08;;;9.45;;
39050;SDS011;24805;55.852;37.644;2022-12-22T19:35:11;13.45;;;9.10;;
39050;SDS011;24805;55.852;37.644;2022-12-22T19:40:15;14.68;;;8.98;;
39050;SDS011;24805;55.852;37.644;2022-12-22T19:50:28;15.60;;;9.50;;
39050;SDS011;24805;55.852;37.644;2022-12-22T19:55:31;10.93;;;8.02;;
39050;SDS011;24805;55.852;37.644;2022-12-22T20:00:40;12.15;;;8.60;;
39050;SDS011;24805;55.852;37.644;2022-12-22T20:05:43;14.00;;;9.43;;
39050;SDS011;24805;55.852;37.644;2022-12-22T20:10:45;15.70;;;9.45;;
39050;SDS011;24805;55.852;37.644;2022-12-22T20:15:53;16.98;;;9.80;;
39050;SDS011;24805;55.852;37.644;2022-12-22T20:26:22;17.13;;;10.50;;
39050;SDS011;24805;55.852;37.644;2022-12-22T20:31:23;17.05;;;10.05;;
39050;SDS011;24805;55.852;37.644;2022-12-22T20:36:27;15.88;;;10.48;;
39050;SDS011;24805;55.852;37.644;2022-12-22T20:41:32;15.40;;;10.30;;
39050;SDS011;24805;55.852;37.644;2022-12-22T20:46:34;15.95;;;10.18;;
39050;SDS011;24805;55.852;37.644;2022-12-22T20:51:36;16.67;;;10.60;;
39050;SDS011;24805;55.852;37.644;2022-12-22T20:56:38;18.08;;;10.50;;
39050;SDS011;24805;55.852;37.644;2022-12-22T21:01:44;15.70;;;10.90;;
39050;SDS011;24805;55.852;37.644;2022-12-22T21:06:49;19.48;;;11.65;;
39050;SDS011;24805;55.852;37.644;2022-12-22T21:11:53;15.18;;;10.27;;
39050;SDS011;24805;55.852;37.644;2022-12-22T21:16:55;16.55;;;10.48;;
39050;SDS011;24805;55.852;37.644;2022-12-22T21:21:57;26.20;;;11.35;;
39050;SDS011;24805;55.852;37.644;2022-12-22T21:26:59;17.40;;;10.50;;
39050;SDS011;24805;55.852;37.644;2022-12-22T21:32:01;15.35;;;10.32;;
39050;SDS011;24805;55.852;37.644;2022-12-22T21:37:03;19.27;;;10.93;;
39050;SDS011;24805;55.852;37.644;2022-12-22T21:42:07;16.27;;;11.55;;
39050;SDS011;24805;55.852;37.644;2022-12-22T21:47:15;17.73;;;12.27;;
39050;SDS011;24805;55.852;37.644;2022-12-22T21:52:18;17.88;;;12.38;;
39050;SDS011;24805;55.852;37.644;2022-12-22T21:57:20;15.85;;;11.15;;
39050;SDS011;24805;55.852;37.644;2022-12-22T22:02:22;18.02;;;12.05;;
39050;SDS011;24805;55.852;37.644;2022-12-22T22:07:25;17.85;;;11.27;;
39050;SDS011;24805;55.852;37.644;2022-12-22T22:12:27;17.95;;;11.30;;
39050;SDS011;24805;55.852;37.644;2022-12-22T22:17:37;18.88;;;11.13;;
39050;SDS011;24805;55.852;37.644;2022-12-22T22:22:39;17.10;;;10.95;;
39050;SDS011;24805;55.852;37.644;2022-12-22T22:27:42;15.57;;;9.88;;
39050;SDS011;24805;55.852;37.644;2022-12-22T22:32:48;16.27;;;10.85;;
39050;SDS011;24805;55.852;37.644;2022-12-22T22:37:51;16.63;;;10.38;;
39050;SDS011;24805;55.852;37.644;2022-12-22T22:42:53;13.35;;;9.60;;
39050;SDS011;24805;55.852;37.644;2022-12-22T22:47:57;15.30;;;10.32;;
39050;SDS011;24805;55.852;37.644;2022-12-22T22:52:59;15.52;;;8.95;;
39050;SDS011;24805;55.852;37.644;2022-12-22T22:58:01;13.95;;;9.07;;
39050;SDS011;24805;55.852;37.644;2022-12-22T23:03:03;14.30;;;9.70;;
39050;SDS011;24805;55.852;37.644;2022-12-22T23:08:05;11.88;;;8.20;;
39050;SDS011;24805;55.852;37.644;2022-12-22T23:13:08;14.20;;;8.63;;
39050;SDS011;24805;55.852;37.644;2022-12-22T23:18:10;11.43;;;7.55;;
39050;SDS011;24805;55.852;37.644;2022-12-22T23:23:12;10.88;;;7.05;;
39050;SDS011;24805;55.852;37.644;2022-12-22T23:28:14;9.82;;;6.70;;
39050;SDS011;24805;55.852;37.644;2022-12-22T23:33:17;10.07;;;5.85;;
39050;SDS011;24805;55.852;37.644;2022-12-22T23:38:20;8.13;;;6.03;;
39050;SDS011;24805;55.852;37.644;2022-12-22T23:43:22;11.40;;;6.90;;
39050;SDS011;24805;55.852;37.644;2022-12-22T23:48:24;10.18;;;6.28;;
39050;SDS011;24805;55.852;37.644;2022-12-22T23:53:26;7.90;;;5.57;;
39050;SDS011;24805;55.852;37.644;2022-12-22T23:58:28;7.43;;;5.38;;
